createdAt,value
2024-05-09T00:00:47.986Z,71.40
2024-05-09T00:03:17.006Z,40.60
2024-05-09T00:05:45.509Z,37.40
2024-05-09T00:08:14.004Z,45.90
2024-05-09T00:10:41.998Z,48.10
2024-05-09T00:13:10.748Z,48.90
2024-05-09T00:15:39.406Z,58.10
2024-05-09T00:18:08.765Z,42.40
2024-05-09T00:20:40.421Z,43.70
2024-05-09T00:25:42.692Z,46.00
2024-05-09T00:28:12.799Z,37.00
2024-05-09T00:30:41.535Z,29.70
2024-05-09T00:33:11.173Z,36.60
2024-05-09T00:35:41.554Z,33.70
2024-05-09T00:38:10.517Z,32.70
2024-05-09T00:40:41.988Z,56.20
2024-05-09T00:43:12.441Z,49.30
2024-05-09T00:45:41.761Z,44.10
2024-05-09T00:48:11.593Z,43.80
2024-05-09T00:50:41.995Z,36.60
2024-05-09T00:53:11.478Z,40.20
2024-05-09T00:55:40.153Z,36.50
2024-05-09T00:58:10.425Z,32.50
2024-05-09T01:00:40.589Z,35.60
2024-05-09T01:03:12.101Z,32.40
2024-05-09T01:05:43.531Z,24.70
2024-05-09T01:08:12.248Z,31.60
2024-05-09T01:10:43.701Z,32.90
2024-05-09T01:13:13.326Z,32.70
2024-05-09T01:15:41.668Z,50.70
2024-05-09T01:18:11.681Z,64.90
2024-05-09T01:20:44.058Z,43.50
2024-05-09T01:23:15.414Z,38.20
2024-05-09T01:25:45.941Z,53.90
2024-05-09T01:28:16.320Z,51.00
2024-05-09T01:30:44.861Z,71.30
2024-05-09T01:33:13.510Z,60.70
2024-05-09T01:35:42.985Z,76.00
2024-05-09T01:38:17.732Z,94.50
2024-05-09T01:40:47.214Z,86.90
2024-05-09T01:43:16.159Z,104.80
2024-05-09T01:45:44.076Z,94.40
2024-05-09T01:48:12.113Z,88.60
2024-05-09T01:50:42.637Z,112.40
2024-05-09T01:53:13.174Z,111.10
2024-05-09T01:55:42.249Z,106.10
2024-05-09T01:58:10.617Z,79.90
2024-05-09T02:00:42.686Z,86.80
2024-05-09T02:03:15.524Z,61.90
2024-05-09T02:05:47.485Z,80.20
2024-05-09T02:08:21.746Z,60.90
2024-05-09T02:10:50.685Z,61.60
2024-05-09T02:13:19.142Z,74.40
2024-05-09T02:15:47.498Z,68.50
2024-05-09T02:18:16.589Z,61.90
2024-05-09T02:20:45.207Z,60.90
2024-05-09T02:23:13.998Z,81.60
2024-05-09T02:25:43.399Z,63.70
2024-05-09T02:28:11.773Z,69.80
2024-05-09T02:30:41.758Z,89.30
2024-05-09T02:33:12.858Z,74.10
2024-05-09T02:35:43.755Z,109.60
2024-05-09T02:38:13.732Z,89.20
2024-05-09T02:40:41.934Z,89.60
2024-05-09T02:43:12.365Z,93.80
2024-05-09T02:45:40.986Z,88.60
2024-05-09T02:48:13.648Z,97.00
2024-05-09T02:50:44.432Z,86.10
2024-05-09T02:53:13.672Z,92.50
2024-05-09T02:55:43.423Z,77.40
2024-05-09T02:58:12.087Z,91.00
2024-05-09T03:00:42.203Z,79.70
2024-05-09T03:03:13.930Z,62.30
2024-05-09T03:05:44.655Z,72.20
2024-05-09T03:08:13.388Z,75.30
2024-05-09T03:10:42.007Z,77.90
2024-05-09T03:13:12.810Z,67.00
2024-05-09T03:15:42.850Z,66.80
2024-05-09T03:18:12.318Z,63.10
2024-05-09T03:20:40.893Z,67.00
2024-05-09T03:23:10.238Z,66.80
2024-05-09T03:25:39.054Z,68.10
2024-05-09T03:28:07.512Z,54.00
2024-05-09T03:30:41.160Z,68.10
2024-05-09T03:33:13.472Z,58.50
2024-05-09T03:35:43.719Z,48.00
2024-05-09T03:38:12.334Z,47.10
2024-05-09T03:40:48.882Z,41.90
2024-05-09T03:43:18.571Z,34.10
2024-05-09T03:45:47.981Z,24.30
2024-05-09T03:48:16.352Z,12.90
2024-05-09T03:50:45.160Z,21.50
2024-05-09T03:53:14.103Z,17.20
2024-05-09T03:55:42.466Z,13.50
2024-05-09T03:58:13.036Z,12.90
2024-05-09T04:00:42.617Z,12.00
2024-05-09T04:03:12.692Z,14.40
2024-05-09T04:05:42.867Z,12.40
2024-05-09T04:08:15.291Z,7.60
2024-05-09T04:10:43.701Z,12.70
2024-05-09T04:13:11.828Z,9.10
2024-05-09T04:15:40.018Z,12.50
2024-05-09T04:18:08.476Z,10.80
2024-05-09T04:20:39.770Z,17.10
2024-05-09T04:25:44.967Z,11.10
2024-05-09T04:28:14.031Z,13.40
2024-05-09T04:30:42.978Z,10.10
2024-05-09T04:33:13.528Z,13.40
2024-05-09T04:35:43.439Z,14.10
2024-05-09T04:38:13.483Z,12.90
2024-05-09T04:40:42.655Z,6.20
2024-05-09T04:43:15.484Z,12.40
2024-05-09T04:45:44.331Z,7.40
2024-05-09T04:48:12.865Z,15.60
2024-05-09T04:50:41.649Z,10.40
2024-05-09T04:53:11.262Z,8.10
2024-05-09T04:55:40.440Z,11.30
2024-05-09T04:58:09.642Z,19.50
2024-05-09T05:00:41.542Z,35.10
2024-05-09T05:03:13.499Z,44.10
2024-05-09T05:05:45.168Z,49.40
2024-05-09T05:08:17.922Z,57.40
2024-05-09T05:10:48.144Z,39.00
2024-05-09T05:13:18.532Z,29.40
2024-05-09T05:15:47.710Z,24.90
2024-05-09T05:18:16.390Z,35.70
2024-05-09T05:20:44.783Z,30.80
2024-05-09T05:23:14.549Z,40.00
2024-05-09T05:25:42.851Z,34.80
2024-05-09T05:28:11.138Z,39.50
2024-05-09T05:30:40.397Z,26.40
2024-05-09T05:33:13.177Z,32.70
2024-05-09T05:35:42.060Z,49.70
2024-05-09T05:38:10.514Z,56.00
2024-05-09T05:40:40.109Z,56.90
2024-05-09T05:43:10.279Z,60.10
2024-05-09T05:45:39.408Z,96.80
2024-05-09T05:48:08.357Z,97.30
2024-05-09T05:50:38.229Z,128.80
2024-05-09T05:53:08.063Z,123.30
2024-05-09T05:55:40.498Z,78.20
2024-05-09T05:58:10.090Z,56.70
2024-05-09T06:00:40.205Z,62.00
2024-05-09T06:03:10.264Z,35.00
2024-05-09T06:05:40.358Z,49.30
2024-05-09T06:08:09.459Z,81.10
2024-05-09T06:10:40.405Z,51.60
2024-05-09T06:13:11.697Z,25.40
2024-05-09T06:15:40.339Z,27.90
2024-05-09T06:18:09.482Z,32.20
2024-05-09T06:20:40.200Z,51.90
2024-05-09T06:23:09.606Z,42.80
2024-05-09T06:25:38.565Z,19.20
2024-05-09T06:28:06.921Z,21.90
2024-05-09T06:30:40.462Z,29.60
2024-05-09T06:33:12.154Z,49.90
2024-05-09T06:35:42.306Z,58.90
2024-05-09T06:38:10.732Z,32.50
2024-05-09T06:40:41.535Z,22.30
2024-05-09T06:43:16.165Z,10.80
2024-05-09T06:45:48.259Z,14.20
2024-05-09T06:48:18.388Z,14.10
2024-05-09T06:50:46.807Z,35.60
2024-05-09T06:53:15.336Z,63.70
2024-05-09T06:55:44.000Z,36.90
2024-05-09T06:58:12.095Z,65.90
2024-05-09T07:00:41.817Z,42.50
2024-05-09T07:03:12.004Z,62.50
2024-05-09T07:05:41.861Z,49.20
2024-05-09T07:08:10.187Z,59.10
2024-05-09T07:10:38.549Z,74.90
2024-05-09T07:13:10.611Z,69.70
2024-05-09T07:15:38.779Z,53.10
2024-05-09T07:18:11.735Z,27.20
2024-05-09T07:20:40.305Z,6.20
2024-05-09T07:23:12.161Z,16.10
2024-05-09T07:25:40.724Z,21.10
2024-05-09T07:28:19.268Z,31.40
2024-05-09T07:30:47.840Z,22.50
2024-05-09T07:33:21.527Z,28.70
2024-05-09T07:35:51.224Z,10.00
2024-05-09T07:38:19.249Z,7.10
2024-05-09T07:40:47.467Z,4.20
2024-05-09T07:43:16.367Z,8.70
2024-05-09T07:45:52.088Z,19.90
2024-05-09T07:52:38.123Z,5.90
2024-05-09T07:53:46.952Z,7.60
2024-05-09T07:56:19.135Z,12.80
2024-05-09T07:58:50.260Z,5.70
2024-05-09T08:01:18.549Z,10.80
2024-05-09T08:03:46.894Z,5.80
2024-05-09T08:06:15.276Z,6.40
2024-05-09T08:08:43.328Z,11.50
2024-05-09T08:11:11.427Z,23.40
2024-05-09T08:13:39.289Z,40.80
2024-05-09T08:16:09.275Z,37.40
2024-05-09T08:18:37.775Z,24.40
2024-05-09T08:21:06.091Z,10.40
2024-05-09T08:23:34.273Z,7.60
2024-05-09T08:26:02.819Z,7.90
2024-05-09T08:28:30.940Z,7.90
2024-05-09T08:31:00.018Z,7.30
2024-05-09T08:33:30.216Z,5.40
2024-05-09T08:35:58.790Z,12.30
2024-05-09T08:38:26.919Z,9.50
2024-05-09T08:40:54.988Z,9.60
2024-05-09T08:43:23.576Z,12.60
2024-05-09T08:45:51.936Z,8.20
2024-05-09T08:48:20.293Z,4.70
2024-05-09T08:50:48.562Z,6.70
2024-05-09T08:53:16.531Z,8.60
2024-05-09T09:00:09.973Z,10.20
2024-05-09T09:02:40.668Z,17.90
2024-05-09T09:05:17.038Z,23.00
2024-05-09T09:07:48.411Z,16.60
2024-05-09T09:10:24.945Z,11.20
2024-05-09T09:12:59.836Z,5.50
2024-05-09T09:15:28.111Z,6.50
2024-05-09T09:17:58.023Z,9.40
2024-05-09T09:20:34.108Z,10.50
2024-05-09T09:23:05.040Z,11.20
2024-05-09T09:25:33.037Z,10.40
2024-05-09T09:28:01.465Z,8.60
2024-05-09T09:30:36.413Z,7.00
2024-05-09T09:33:06.764Z,6.40
2024-05-09T09:35:36.346Z,5.70
2024-05-09T09:38:05.936Z,13.50
2024-05-09T09:40:39.043Z,11.60
2024-05-09T09:43:14.418Z,10.60
2024-05-09T09:45:43.748Z,10.00
2024-05-09T09:48:12.480Z,3.90
2024-05-09T09:50:41.085Z,12.90
2024-05-09T09:53:09.011Z,14.80
2024-05-09T09:55:37.623Z,10.00
2024-05-09T09:58:09.620Z,12.00
2024-05-09T10:00:40.253Z,11.80
2024-05-09T10:03:08.333Z,10.20
2024-05-09T10:05:36.914Z,8.70
2024-05-09T10:08:07.415Z,20.60
2024-05-09T10:10:36.863Z,15.00
2024-05-09T10:13:06.231Z,12.30
2024-05-09T10:15:51.064Z,13.80
2024-05-09T10:18:28.276Z,26.40
2024-05-09T10:20:59.783Z,9.90
2024-05-09T10:23:32.647Z,16.00
2024-05-09T10:26:02.958Z,7.00
2024-05-09T10:28:35.691Z,12.70
2024-05-09T10:31:15.884Z,9.50
2024-05-09T10:33:49.711Z,5.90
2024-05-09T10:36:20.389Z,4.70
2024-05-09T10:38:52.727Z,4.70
2024-05-09T10:41:21.736Z,7.50
2024-05-09T10:43:50.259Z,9.90
2024-05-09T10:46:21.458Z,11.50
2024-05-09T10:48:50.175Z,5.30
2024-05-09T10:51:19.729Z,6.60
2024-05-09T10:53:48.263Z,3.60
2024-05-09T10:56:17.392Z,3.50
2024-05-09T10:58:45.775Z,2.50
2024-05-09T11:01:14.169Z,5.90
2024-05-09T11:03:42.948Z,2.10
2024-05-09T11:06:11.491Z,8.60
2024-05-09T11:08:39.749Z,8.60
2024-05-09T11:11:08.838Z,2.60
2024-05-09T11:13:40.808Z,7.90
2024-05-09T11:16:19.720Z,4.50
2024-05-09T11:18:56.089Z,2.70
2024-05-09T11:21:24.706Z,7.20
2024-05-09T11:23:52.734Z,9.50
2024-05-09T11:26:22.219Z,6.50
2024-05-09T11:28:51.766Z,4.70
2024-05-09T11:31:19.984Z,5.20
2024-05-09T11:33:48.493Z,10.00
2024-05-09T11:36:17.314Z,2.60
2024-05-09T11:38:45.334Z,2.00
2024-05-09T11:41:17.463Z,4.10
2024-05-09T11:46:13.978Z,12.30
2024-05-09T11:48:42.016Z,6.40
2024-05-09T11:51:10.230Z,2.00
2024-05-09T11:53:38.289Z,9.20
2024-05-09T11:56:06.384Z,5.20
2024-05-09T11:58:36.895Z,66.60
2024-05-09T12:01:05.440Z,12.10
2024-05-09T12:03:34.929Z,33.30
2024-05-09T12:06:04.089Z,18.80
2024-05-09T12:08:32.602Z,16.00
2024-05-09T12:11:01.532Z,19.30
2024-05-09T12:13:29.793Z,17.10
2024-05-09T12:15:58.553Z,57.90
2024-05-09T12:18:26.550Z,13.00
2024-05-09T12:20:54.873Z,9.40
2024-05-09T12:23:22.863Z,8.40
2024-05-09T12:25:50.988Z,22.80
2024-05-09T12:28:20.043Z,72.70
2024-05-09T12:30:51.895Z,51.80
2024-05-09T12:33:20.971Z,27.30
2024-05-09T12:35:50.998Z,36.30
2024-05-09T12:38:19.379Z,7.40
2024-05-09T12:40:47.761Z,6.50
2024-05-09T12:43:15.820Z,9.60
2024-05-09T12:45:44.449Z,2.70
2024-05-09T12:48:13.264Z,92.30
2024-05-09T12:50:41.897Z,11.40
2024-05-09T12:53:10.275Z,121.80
2024-05-09T12:55:45.107Z,28.40
2024-05-09T12:58:22.620Z,5.90
2024-05-09T13:00:51.981Z,50.20
2024-05-09T13:03:20.693Z,18.60
2024-05-09T13:05:50.105Z,9.80
2024-05-09T13:08:18.609Z,14.40
2024-05-09T13:10:46.710Z,8.90
2024-05-09T13:13:15.051Z,2.20
2024-05-09T13:15:43.273Z,5.60
2024-05-09T13:18:11.362Z,15.30
2024-05-09T13:20:39.588Z,9.40
2024-05-09T13:23:08.461Z,10.10
2024-05-09T13:25:38.006Z,10.50
2024-05-09T13:28:07.336Z,13.80
2024-05-09T13:30:40.582Z,69.00
2024-05-09T13:33:12.291Z,20.10
2024-05-09T13:35:45.743Z,8.30
2024-05-09T13:38:18.231Z,6.00
2024-05-09T13:40:47.213Z,6.50
2024-05-09T13:43:15.471Z,4.40
2024-05-09T13:45:43.888Z,2.60
2024-05-09T13:48:12.214Z,2.80
2024-05-09T13:50:40.626Z,1.00
2024-05-09T13:53:09.229Z,2.60
2024-05-09T13:55:38.473Z,2.40
2024-05-09T13:58:06.985Z,2.00
2024-05-09T14:00:44.918Z,6.10
2024-05-09T14:03:18.931Z,6.00
2024-05-09T14:08:20.002Z,3.60
2024-05-09T14:10:49.012Z,9.10
2024-05-09T14:13:17.494Z,5.60
2024-05-09T14:15:46.715Z,5.30
2024-05-09T14:18:15.114Z,3.30
2024-05-09T14:20:43.513Z,1.70
2024-05-09T14:23:11.564Z,4.00
2024-05-09T14:25:42.492Z,1.80
2024-05-09T14:30:41.822Z,1.30
2024-05-09T14:33:10.446Z,1.50
2024-05-09T14:35:39.194Z,6.50
2024-05-09T14:38:08.036Z,1.70
2024-05-09T14:40:41.870Z,4.10
2024-05-09T14:43:13.663Z,1.60
2024-05-09T14:45:43.128Z,4.70
2024-05-09T14:48:14.948Z,2.80
2024-05-09T14:50:43.422Z,2.00
2024-05-09T14:53:12.787Z,3.70
2024-05-09T14:55:43.035Z,4.00
2024-05-09T14:58:12.654Z,4.10
2024-05-09T15:00:46.018Z,4.30
2024-05-09T15:03:22.244Z,1.30
2024-05-09T15:05:51.824Z,2.20
2024-05-09T15:08:20.474Z,2.20
2024-05-09T15:10:51.744Z,6.60
2024-05-09T15:13:21.004Z,4.10
2024-05-09T15:15:49.677Z,3.90
2024-05-09T15:18:18.115Z,5.50
2024-05-09T15:20:47.068Z,2.10
2024-05-09T15:23:15.456Z,6.30
2024-05-09T15:25:44.911Z,2.30
2024-05-09T15:28:12.865Z,3.50
2024-05-09T15:30:43.988Z,9.40
2024-05-09T15:33:14.840Z,3.40
2024-05-09T15:35:43.230Z,16.50
2024-05-09T15:38:11.549Z,9.40
2024-05-09T15:40:40.949Z,2.10
2024-05-09T15:43:11.009Z,3.30
2024-05-09T15:45:41.106Z,12.50
2024-05-09T15:48:10.312Z,4.90
2024-05-09T15:50:41.374Z,6.20
2024-05-09T15:53:12.072Z,3.90
2024-05-09T15:55:42.319Z,9.80
2024-05-09T15:58:10.575Z,1.40
2024-05-09T16:00:42.185Z,2.70
2024-05-09T16:03:13.371Z,4.30
2024-05-09T16:05:46.824Z,3.10
2024-05-09T16:08:15.914Z,3.30
2024-05-09T16:10:47.712Z,4.40
2024-05-09T16:13:17.314Z,7.20
2024-05-09T16:15:46.009Z,3.00
2024-05-09T16:18:14.230Z,4.40
2024-05-09T16:20:44.731Z,2.90
2024-05-09T16:23:14.293Z,2.70
2024-05-09T16:25:45.296Z,3.40
2024-05-09T16:28:13.514Z,7.20
2024-05-09T16:30:42.119Z,3.30
2024-05-09T16:33:13.517Z,4.80
2024-05-09T16:35:41.895Z,4.00
2024-05-09T16:38:10.259Z,9.20
2024-05-09T16:40:40.743Z,14.40
2024-05-09T16:43:10.540Z,23.10
2024-05-09T16:45:40.078Z,51.10
2024-05-09T16:48:08.672Z,198.80
2024-05-09T16:50:37.416Z,84.30
2024-05-09T16:53:06.745Z,38.30
2024-05-09T16:55:35.847Z,30.10
2024-05-09T16:58:06.922Z,19.30
2024-05-09T17:00:41.070Z,7.50
2024-05-09T17:03:14.010Z,15.40
2024-05-09T17:05:44.079Z,11.70
2024-05-09T17:08:12.232Z,5.10
2024-05-09T17:10:40.566Z,11.70
2024-05-09T17:13:10.140Z,8.10
2024-05-09T17:15:38.617Z,10.00
2024-05-09T17:18:07.635Z,13.60
2024-05-09T17:20:37.561Z,5.40
2024-05-09T17:23:15.543Z,10.40
2024-05-09T17:25:44.009Z,6.70
2024-05-09T17:28:12.506Z,5.70
2024-05-09T17:30:42.569Z,7.00
2024-05-09T17:33:12.719Z,12.20
2024-05-09T17:35:41.354Z,22.90
2024-05-09T17:38:09.484Z,15.70
2024-05-09T17:40:39.027Z,9.10
2024-05-09T17:43:09.766Z,15.00
2024-05-09T17:45:40.776Z,17.20
2024-05-09T17:48:11.265Z,12.40
2024-05-09T17:50:41.631Z,11.60
2024-05-09T17:53:10.948Z,15.80
2024-05-09T17:55:40.130Z,10.60
2024-05-09T17:58:08.941Z,19.10
2024-05-09T18:00:40.755Z,14.10
2024-05-09T18:03:12.349Z,32.30
2024-05-09T18:05:42.864Z,10.20
2024-05-09T18:08:12.464Z,10.60
2024-05-09T18:10:41.526Z,12.50
2024-05-09T18:13:13.213Z,15.90
2024-05-09T18:15:41.571Z,13.00
2024-05-09T18:18:11.019Z,11.90
2024-05-09T18:20:43.949Z,8.50
2024-05-09T18:23:16.574Z,11.80
2024-05-09T18:25:46.281Z,9.10
2024-05-09T18:28:15.691Z,43.20
2024-05-09T18:30:44.485Z,95.10
2024-05-09T18:33:12.974Z,70.60
2024-05-09T18:35:44.012Z,26.30
2024-05-09T18:38:12.176Z,23.20
2024-05-09T18:40:42.072Z,8.70
2024-05-09T18:43:12.269Z,7.20
2024-05-09T18:45:40.553Z,18.40
2024-05-09T18:48:10.247Z,6.30
2024-05-09T18:50:40.750Z,10.40
2024-05-09T18:53:11.558Z,11.30
2024-05-09T18:55:41.767Z,11.20
2024-05-09T18:58:10.518Z,9.00
2024-05-09T19:00:41.388Z,7.30
2024-05-09T19:03:13.921Z,6.50
2024-05-09T19:05:44.712Z,7.70
2024-05-09T19:08:15.164Z,9.40
2024-05-09T19:10:45.956Z,10.90
2024-05-09T19:13:15.103Z,8.20
2024-05-09T19:15:44.428Z,13.10
2024-05-09T19:18:13.963Z,14.50
2024-05-09T19:20:43.990Z,14.40
2024-05-09T19:23:12.368Z,11.20
2024-05-09T19:25:40.781Z,15.70
2024-05-09T19:28:09.139Z,8.20
2024-05-09T19:30:41.198Z,8.30
2024-05-09T19:33:13.037Z,11.60
2024-05-09T19:35:43.292Z,10.20
2024-05-09T19:38:12.193Z,13.50
2024-05-09T19:40:40.506Z,11.40
2024-05-09T19:43:09.586Z,9.00
2024-05-09T19:45:38.159Z,14.30
2024-05-09T19:48:07.141Z,9.50
2024-05-09T19:50:41.695Z,11.70
2024-05-09T19:53:13.487Z,8.70
2024-05-09T19:55:42.145Z,15.00
2024-05-09T19:58:10.467Z,11.70
2024-05-09T20:00:41.418Z,18.40
2024-05-09T20:05:42.558Z,12.40
2024-05-09T20:08:11.123Z,20.40
2024-05-09T20:10:39.335Z,12.40
2024-05-09T20:13:10.104Z,11.80
2024-05-09T20:15:38.685Z,19.60
2024-05-09T20:18:07.570Z,18.40
2024-05-09T20:20:39.899Z,15.10
2024-05-09T20:23:11.541Z,15.50
2024-05-09T20:25:40.254Z,21.30
2024-05-09T20:28:08.750Z,17.50
2024-05-09T20:30:37.317Z,17.90
2024-05-09T20:33:07.602Z,33.20
2024-05-09T20:35:37.219Z,15.50
2024-05-09T20:38:05.947Z,10.00
2024-05-09T20:40:37.812Z,10.40
2024-05-09T20:43:10.921Z,18.80
2024-05-09T20:45:40.156Z,17.60
2024-05-09T20:48:09.439Z,16.10
2024-05-09T20:50:41.385Z,21.10
2024-05-09T20:53:13.530Z,20.90
2024-05-09T20:55:43.966Z,30.00
2024-05-09T20:58:13.312Z,17.00
2024-05-09T21:00:44.523Z,24.70
2024-05-09T21:03:16.313Z,41.50
2024-05-09T21:05:45.875Z,45.60
2024-05-09T21:08:14.363Z,36.20
2024-05-09T21:10:43.009Z,34.10
2024-05-09T21:13:11.543Z,38.40
2024-05-09T21:15:40.251Z,45.80
2024-05-09T21:18:08.670Z,48.10
2024-05-09T21:20:37.921Z,52.20
2024-05-09T21:23:06.271Z,52.50
2024-05-09T21:25:34.316Z,56.50
2024-05-09T21:28:03.125Z,53.80
2024-05-09T21:30:40.156Z,39.30
2024-05-09T21:33:14.968Z,43.60
2024-05-09T21:35:44.020Z,41.60
2024-05-09T21:38:14.018Z,38.20
2024-05-09T21:40:43.223Z,38.10
2024-05-09T21:43:11.672Z,48.60
2024-05-09T21:45:40.311Z,44.70
2024-05-09T21:48:08.640Z,43.30
2024-05-09T21:50:41.053Z,54.50
2024-05-09T21:53:12.083Z,59.60
2024-05-09T21:55:44.530Z,46.90
2024-05-09T21:58:13.576Z,48.50
2024-05-09T22:01:09.087Z,43.90
2024-05-09T22:03:37.943Z,61.60
2024-05-09T22:06:06.398Z,58.60
2024-05-09T22:08:34.299Z,65.40
2024-05-09T22:11:02.489Z,85.00
2024-05-09T22:13:30.769Z,88.80
2024-05-09T22:15:59.172Z,93.20
2024-05-09T22:18:27.413Z,87.00
2024-05-09T22:20:55.475Z,72.60
2024-05-09T22:23:23.851Z,95.00
2024-05-09T22:25:51.908Z,74.90
2024-05-09T22:28:20.301Z,101.90
2024-05-09T22:30:50.611Z,72.90
2024-05-09T22:33:18.702Z,83.20
2024-05-09T22:35:48.088Z,85.70
2024-05-09T22:38:16.590Z,62.70
2024-05-09T22:40:48.443Z,84.70
2024-05-09T22:43:23.816Z,66.90
2024-05-09T22:45:54.863Z,82.70
2024-05-09T22:48:25.195Z,66.50
2024-05-09T22:50:54.832Z,66.70
2024-05-09T22:53:25.434Z,77.70
2024-05-09T22:55:53.806Z,58.80
2024-05-09T22:58:23.002Z,61.00
2024-05-09T23:00:51.791Z,64.60
2024-05-09T23:03:21.797Z,47.40
2024-05-09T23:05:50.680Z,52.00
2024-05-09T23:08:19.296Z,51.90
2024-05-09T23:10:47.494Z,56.00
2024-05-09T23:13:15.981Z,47.10
2024-05-09T23:15:44.017Z,41.40
2024-05-09T23:18:12.238Z,37.10
2024-05-09T23:20:40.637Z,47.90
2024-05-09T23:23:09.986Z,30.70
2024-05-09T23:25:41.929Z,29.90
2024-05-09T23:28:10.802Z,30.90
2024-05-09T23:30:40.818Z,24.30
2024-05-09T23:33:11.509Z,29.40
2024-05-09T23:35:41.418Z,22.20
2024-05-09T23:38:09.518Z,23.60
2024-05-09T23:40:40.553Z,22.70
2024-05-09T23:43:11.369Z,24.60
2024-05-09T23:45:40.931Z,35.40
2024-05-09T23:48:09.994Z,30.80
2024-05-09T23:50:40.309Z,26.40
2024-05-09T23:53:10.168Z,25.40
2024-05-09T23:55:39.503Z,22.70
2024-05-09T23:58:08.523Z,27.10
